createdAt,value
2019-03-29T00:01:59.491Z,56203.33
2019-03-29T00:04:30.208Z,56182.76
2019-03-29T00:07:00.882Z,56177.62
2019-03-29T00:09:32.131Z,56187.90
2019-03-29T00:12:03.118Z,56209.50
2019-03-29T00:14:33.790Z,56183.79
2019-03-29T00:17:04.798Z,56200.24
2019-03-29T00:19:35.795Z,56188.93
2019-03-29T00:22:06.992Z,56177.62
2019-03-29T00:24:37.694Z,56180.71
2019-03-29T00:27:08.423Z,56206.41
2019-03-29T00:29:39.182Z,56172.48
2019-03-29T00:32:09.870Z,56189.96
2019-03-29T00:34:41.893Z,56203.33
2019-03-29T00:37:13.204Z,56193.05
2019-03-29T00:39:43.998Z,56195.10
2019-03-29T00:42:14.756Z,56184.82
2019-03-29T00:44:45.955Z,56190.99
2019-03-29T00:47:16.732Z,56194.07
2019-03-29T00:49:47.391Z,56188.93
2019-03-29T00:52:18.458Z,56172.48
2019-03-29T00:54:49.238Z,56152.94
2019-03-29T00:57:19.938Z,56173.51
2019-03-29T00:59:50.595Z,56180.71
2019-03-29T01:02:21.339Z,56170.42
2019-03-29T01:04:51.986Z,56182.76
2019-03-29T01:07:22.649Z,56190.99
2019-03-29T01:09:53.305Z,56151.91
2019-03-29T01:12:24.423Z,56190.99
2019-03-29T01:14:55.453Z,56193.05
2019-03-29T01:17:26.456Z,56187.90
2019-03-29T01:19:57.112Z,56176.59
2019-03-29T01:22:27.885Z,56181.73
2019-03-29T01:24:58.611Z,56236.23
2019-03-29T01:27:29.278Z,56168.37
2019-03-29T01:30:00.289Z,56204.36
2019-03-29T01:32:30.960Z,56139.57
2019-03-29T01:35:01.673Z,56208.47
2019-03-29T01:37:32.368Z,56184.82
2019-03-29T01:40:03.126Z,56198.19
2019-03-29T01:42:33.791Z,56188.93
2019-03-29T01:45:04.747Z,56164.25
2019-03-29T01:47:35.409Z,56153.97
2019-03-29T01:50:08.010Z,56182.76
2019-03-29T01:52:38.832Z,56195.10
2019-03-29T01:55:10.047Z,56185.85
2019-03-29T01:57:40.728Z,56166.31
2019-03-29T02:00:13.561Z,56171.45
2019-03-29T02:02:44.251Z,56192.02
2019-03-29T02:05:14.947Z,56199.21
2019-03-29T02:07:45.615Z,56172.48
2019-03-29T02:10:16.418Z,56168.37
2019-03-29T02:12:47.212Z,56201.27
2019-03-29T02:15:18.022Z,56226.98
2019-03-29T02:17:48.793Z,56193.05
2019-03-29T02:20:19.718Z,56168.37
2019-03-29T02:22:50.643Z,56209.50
2019-03-29T02:25:21.630Z,56197.16
2019-03-29T02:27:53.026Z,56189.96
2019-03-29T02:30:24.072Z,56180.71
2019-03-29T02:32:54.903Z,56183.79
2019-03-29T02:35:26.424Z,56217.72
2019-03-29T02:37:57.167Z,56190.99
2019-03-29T02:40:28.187Z,56155.00
2019-03-29T02:42:58.862Z,56193.05
2019-03-29T02:45:30.660Z,56185.85
2019-03-29T02:48:01.471Z,56206.41
2019-03-29T02:50:32.142Z,56193.05
2019-03-29T02:53:02.930Z,56211.55
2019-03-29T02:55:34.093Z,56197.16
2019-03-29T02:58:04.807Z,56174.54
2019-03-29T03:00:35.757Z,56195.10
2019-03-29T03:03:06.900Z,56178.65
2019-03-29T03:05:37.619Z,56181.73
2019-03-29T03:08:08.338Z,56189.96
2019-03-29T03:10:38.995Z,56176.59
2019-03-29T03:13:09.793Z,56226.98
2019-03-29T03:15:40.546Z,56184.82
2019-03-29T03:18:11.271Z,56182.76
2019-03-29T03:20:41.946Z,56182.76
2019-03-29T03:23:12.664Z,56200.24
2019-03-29T03:25:43.421Z,56185.85
2019-03-29T03:28:14.246Z,56209.50
2019-03-29T03:30:44.904Z,56216.70
2019-03-29T03:33:15.857Z,56173.51
2019-03-29T03:35:46.509Z,56166.31
2019-03-29T03:38:17.295Z,56206.41
2019-03-29T03:40:48.042Z,56202.30
2019-03-29T03:43:18.980Z,56209.50
2019-03-29T03:45:49.938Z,56165.28
2019-03-29T03:48:20.693Z,56166.31
2019-03-29T03:50:51.460Z,56199.21
2019-03-29T03:53:22.088Z,56183.79
2019-03-29T03:55:54.735Z,56218.75
2019-03-29T03:58:26.432Z,56214.64
2019-03-29T04:00:58.911Z,56166.31
2019-03-29T04:03:29.903Z,56201.27
2019-03-29T04:06:01.134Z,56197.16
2019-03-29T04:08:32.152Z,56221.84
2019-03-29T04:11:02.784Z,56164.25
2019-03-29T04:13:34.062Z,56187.90
2019-03-29T04:16:04.832Z,56173.51
2019-03-29T04:18:35.712Z,56197.16
2019-03-29T04:21:06.642Z,56195.10
2019-03-29T04:23:37.416Z,56224.92
2019-03-29T04:26:08.122Z,56185.85
2019-03-29T04:28:38.803Z,56194.07
2019-03-29T04:31:09.882Z,56225.95
2019-03-29T04:33:40.783Z,56165.28
2019-03-29T04:36:11.497Z,56208.47
2019-03-29T04:38:42.273Z,56220.81
2019-03-29T04:41:13.001Z,56198.19
2019-03-29T04:43:43.754Z,56217.72
2019-03-29T04:46:14.538Z,56217.72
2019-03-29T04:48:45.184Z,56179.68
2019-03-29T04:51:16.336Z,56192.02
2019-03-29T04:53:47.346Z,56190.99
2019-03-29T04:56:18.226Z,56188.93
2019-03-29T04:58:48.888Z,56198.19
2019-03-29T05:01:19.518Z,56190.99
2019-03-29T05:03:50.182Z,56209.50
2019-03-29T05:06:21.098Z,56196.13
2019-03-29T05:08:52.034Z,56184.82
2019-03-29T05:11:23.228Z,56219.78
2019-03-29T05:13:54.058Z,56183.79
2019-03-29T05:16:25.471Z,56193.05
2019-03-29T05:18:56.298Z,56174.54
2019-03-29T05:21:27.157Z,56170.42
2019-03-29T05:23:57.932Z,56211.55
2019-03-29T05:26:28.569Z,56178.65
2019-03-29T05:28:59.286Z,56190.99
2019-03-29T05:31:30.001Z,56172.48
2019-03-29T05:34:00.790Z,56214.64
2019-03-29T05:36:32.083Z,56209.50
2019-03-29T05:39:02.777Z,56193.05
2019-03-29T05:41:33.596Z,56192.02
2019-03-29T05:44:04.595Z,56192.02
2019-03-29T05:46:35.450Z,56160.14
2019-03-29T05:49:06.462Z,56216.70
2019-03-29T05:51:37.089Z,56204.36
2019-03-29T05:54:07.843Z,56211.55
2019-03-29T05:56:38.621Z,56208.47
2019-03-29T05:59:09.422Z,56186.87
2019-03-29T06:01:40.405Z,56188.93
2019-03-29T06:04:11.122Z,56174.54
2019-03-29T06:06:41.781Z,56207.44
2019-03-29T06:09:12.449Z,56148.83
2019-03-29T06:11:43.646Z,56209.50
2019-03-29T06:14:14.280Z,56176.59
2019-03-29T06:16:44.960Z,56176.59
2019-03-29T06:19:15.617Z,56200.24
2019-03-29T06:21:46.272Z,56189.96
2019-03-29T06:24:17.004Z,56196.13
2019-03-29T06:26:47.616Z,56170.42
2019-03-29T06:29:18.581Z,56177.62
2019-03-29T06:31:49.325Z,56182.76
2019-03-29T06:34:19.981Z,56186.87
2019-03-29T06:36:52.502Z,56170.42
2019-03-29T06:39:26.161Z,56178.65
2019-03-29T06:41:57.900Z,56158.09
2019-03-29T06:44:28.597Z,56169.39
2019-03-29T06:46:59.338Z,56149.86
2019-03-29T06:49:30.305Z,56162.20
2019-03-29T06:52:00.969Z,56165.28
2019-03-29T06:54:31.622Z,56183.79
2019-03-29T06:57:02.654Z,56189.96
2019-03-29T06:59:33.653Z,56176.59
2019-03-29T07:02:04.600Z,56190.99
2019-03-29T07:04:35.264Z,56160.14
2019-03-29T07:07:06.086Z,56170.42
2019-03-29T07:09:36.748Z,56147.80
2019-03-29T07:12:07.386Z,56169.39
2019-03-29T07:14:38.345Z,56184.82
2019-03-29T07:17:10.454Z,56139.57
2019-03-29T07:19:41.325Z,56167.34
2019-03-29T07:22:11.986Z,56147.80
2019-03-29T07:24:42.916Z,56173.51
2019-03-29T07:27:13.657Z,56160.14
2019-03-29T07:29:44.796Z,56165.28
2019-03-29T07:32:15.658Z,56178.65
2019-03-29T07:34:49.110Z,56142.66
2019-03-29T07:37:19.080Z,56147.80
2019-03-29T07:39:49.722Z,56146.77
2019-03-29T07:42:20.370Z,56106.67
2019-03-29T07:44:51.018Z,56147.80
2019-03-29T07:47:21.975Z,56137.52
2019-03-29T07:49:52.660Z,56166.31
2019-03-29T07:52:23.546Z,56142.66
2019-03-29T07:54:54.209Z,56162.20
2019-03-29T07:57:24.837Z,56159.11
2019-03-29T07:59:55.472Z,56131.35
2019-03-29T08:02:26.169Z,56145.75
2019-03-29T08:04:56.833Z,56121.07
2019-03-29T08:07:28.901Z,56143.69
2019-03-29T08:10:03.232Z,56155.00
2019-03-29T08:12:32.496Z,56148.83
2019-03-29T08:15:03.463Z,56145.75
2019-03-29T08:17:34.112Z,56134.43
2019-03-29T08:20:36.518Z,56137.52
2019-03-29T08:22:37.625Z,56147.80
2019-03-29T08:25:08.417Z,56153.97
2019-03-29T08:27:39.078Z,56141.63
2019-03-29T08:30:10.508Z,56145.75
2019-03-29T08:32:41.140Z,56140.61
2019-03-29T08:35:11.957Z,56166.31
2019-03-29T08:37:42.972Z,56156.03
2019-03-29T08:40:13.834Z,56119.01
2019-03-29T08:42:44.515Z,56127.23
2019-03-29T08:45:15.350Z,56110.79
2019-03-29T08:47:46.002Z,56098.45
2019-03-29T08:50:16.722Z,56138.55
2019-03-29T08:52:47.942Z,56146.77
2019-03-29T08:55:18.580Z,56133.41
2019-03-29T08:57:49.871Z,56113.87
2019-03-29T09:00:34.636Z,56114.90
2019-03-29T09:03:05.817Z,56099.47
2019-03-29T09:05:39.189Z,56151.91
2019-03-29T09:08:08.917Z,56135.46
2019-03-29T09:10:39.911Z,56131.35
2019-03-29T09:13:10.560Z,56116.95
2019-03-29T09:15:41.233Z,56119.01
2019-03-29T09:18:12.068Z,56136.49
2019-03-29T09:20:43.163Z,56120.04
2019-03-29T09:23:13.820Z,56133.41
2019-03-29T09:25:44.579Z,56131.35
2019-03-29T09:28:15.216Z,56119.01
2019-03-29T09:30:45.894Z,56079.94
2019-03-29T09:33:16.604Z,56138.55
2019-03-29T09:35:47.341Z,56139.57
2019-03-29T09:38:18.155Z,56120.04
2019-03-29T09:40:58.362Z,56156.03
2019-03-29T09:43:21.241Z,56139.57
2019-03-29T09:45:51.952Z,56127.23
2019-03-29T09:48:22.669Z,56125.18
2019-03-29T09:50:53.945Z,56098.45
2019-03-29T09:53:24.658Z,56061.43
2019-03-29T09:55:55.336Z,56112.84
2019-03-29T09:58:25.996Z,56098.45
2019-03-29T10:00:56.693Z,56073.77
2019-03-29T10:03:27.338Z,56080.96
2019-03-29T10:05:57.983Z,56088.16
2019-03-29T10:08:28.661Z,56070.68
2019-03-29T10:10:59.356Z,56074.80
2019-03-29T10:13:30.035Z,56110.79
2019-03-29T10:16:00.925Z,56085.08
2019-03-29T10:18:31.565Z,56077.88
2019-03-29T10:21:02.484Z,56066.57
2019-03-29T10:23:33.416Z,56092.28
2019-03-29T10:26:04.131Z,56056.29
2019-03-29T10:28:34.800Z,56051.14
2019-03-29T10:31:05.514Z,56076.85
2019-03-29T10:33:36.172Z,56064.51
2019-03-29T10:36:06.842Z,56038.81
2019-03-29T10:38:37.503Z,56055.26
2019-03-29T10:41:08.151Z,56049.09
2019-03-29T10:43:39.227Z,56099.47
2019-03-29T10:46:10.116Z,56082.00
2019-03-29T10:48:40.798Z,56077.88
2019-03-29T10:51:11.760Z,56082.00
2019-03-29T10:53:42.412Z,56066.57
2019-03-29T10:56:13.081Z,56048.06
2019-03-29T10:58:45.013Z,56074.80
2019-03-29T11:01:15.926Z,56066.57
2019-03-29T11:03:46.597Z,56093.30
2019-03-29T11:06:17.630Z,56080.96
2019-03-29T11:08:48.387Z,56105.64
2019-03-29T11:11:19.016Z,56090.22
2019-03-29T11:13:49.702Z,56107.70
2019-03-29T11:16:20.388Z,56044.98
2019-03-29T11:18:51.056Z,56086.11
2019-03-29T11:21:21.718Z,56098.45
2019-03-29T11:23:52.373Z,56070.68
2019-03-29T11:26:23.100Z,56114.90
2019-03-29T11:28:54.035Z,56094.33
2019-03-29T11:31:25.595Z,56100.50
2019-03-29T11:33:56.424Z,56075.82
2019-03-29T11:36:27.113Z,56093.30
2019-03-29T11:38:58.130Z,56056.29
2019-03-29T11:41:29.179Z,56088.16
2019-03-29T11:44:00.096Z,56042.92
2019-03-29T11:46:30.758Z,56080.96
2019-03-29T11:49:01.421Z,56055.26
2019-03-29T11:51:32.055Z,56084.05
2019-03-29T11:54:02.725Z,56061.43
2019-03-29T11:56:33.358Z,56069.65
2019-03-29T11:59:03.996Z,56047.03
2019-03-29T12:01:34.675Z,56060.40
2019-03-29T12:04:05.627Z,56077.88
2019-03-29T12:06:36.288Z,56086.11
2019-03-29T12:09:08.788Z,56050.12
2019-03-29T12:11:39.563Z,56052.18
2019-03-29T12:14:10.518Z,56017.21
2019-03-29T12:16:41.192Z,56049.09
2019-03-29T12:19:11.869Z,56079.94
2019-03-29T12:21:42.534Z,56042.92
2019-03-29T12:24:13.485Z,56024.41
2019-03-29T12:26:44.440Z,56036.75
2019-03-29T12:29:15.152Z,56055.26
2019-03-29T12:31:45.886Z,56031.61
2019-03-29T12:34:16.870Z,56082.00
2019-03-29T12:36:47.503Z,56069.65
2019-03-29T12:39:18.172Z,56075.82
2019-03-29T12:41:48.874Z,56078.91
2019-03-29T12:44:19.838Z,56040.86
2019-03-29T12:46:50.458Z,56054.23
2019-03-29T12:49:21.121Z,56044.98
2019-03-29T12:51:51.870Z,56071.71
2019-03-29T12:54:22.723Z,56084.05
2019-03-29T12:56:53.363Z,56036.75
2019-03-29T12:59:24.048Z,56085.08
2019-03-29T13:01:54.778Z,56067.60
2019-03-29T13:04:25.408Z,56055.26
2019-03-29T13:06:56.067Z,56040.86
2019-03-29T13:09:26.769Z,56039.84
2019-03-29T13:11:57.507Z,56059.37
2019-03-29T13:14:28.131Z,56083.02
2019-03-29T13:16:58.774Z,56025.44
2019-03-29T13:19:29.445Z,56048.06
2019-03-29T13:22:00.094Z,56043.95
2019-03-29T13:24:30.723Z,56052.18
2019-03-29T13:27:01.383Z,56055.26
2019-03-29T13:29:32.075Z,56024.41
2019-03-29T13:32:21.781Z,56007.96
2019-03-29T13:34:52.545Z,56012.07
2019-03-29T13:37:23.284Z,56073.77
2019-03-29T13:39:54.255Z,56057.32
2019-03-29T13:42:24.956Z,56038.81
2019-03-29T13:44:55.636Z,56063.48
2019-03-29T13:47:26.319Z,56043.95
2019-03-29T13:49:56.987Z,56010.02
2019-03-29T13:52:27.748Z,56063.48
2019-03-29T13:54:58.414Z,56057.32
2019-03-29T13:57:29.312Z,56077.88
2019-03-29T14:00:00.377Z,56030.58
2019-03-29T14:02:31.204Z,56051.14
2019-03-29T14:05:01.980Z,56036.75
2019-03-29T14:07:33.094Z,56065.54
2019-03-29T14:10:04.959Z,56021.33
2019-03-29T14:12:35.932Z,56038.81
2019-03-29T14:15:09.128Z,56023.38
2019-03-29T14:17:40.936Z,56042.92
2019-03-29T14:20:12.265Z,56013.10
2019-03-29T14:22:43.300Z,56014.13
2019-03-29T14:25:15.755Z,56038.81
2019-03-29T14:27:46.965Z,56028.52
2019-03-29T14:30:18.178Z,56055.26
2019-03-29T14:32:49.068Z,56048.06
2019-03-29T14:35:23.054Z,56064.51
2019-03-29T14:37:54.070Z,56067.60
2019-03-29T14:40:25.100Z,56040.86
2019-03-29T14:42:56.755Z,56054.23
2019-03-29T14:45:27.676Z,56033.67
2019-03-29T14:47:58.614Z,56065.54
2019-03-29T14:50:29.418Z,56057.32
2019-03-29T14:53:00.073Z,56065.54
2019-03-29T14:55:30.976Z,56042.92
2019-03-29T14:58:02.198Z,56065.54
2019-03-29T15:00:44.177Z,56055.26
2019-03-29T15:03:15.419Z,56082.00
2019-03-29T15:05:46.549Z,56044.98
2019-03-29T15:08:17.207Z,56022.36
2019-03-29T15:10:47.956Z,56079.94
2019-03-29T15:13:18.595Z,56089.19
2019-03-29T15:15:49.290Z,56047.03
2019-03-29T15:18:19.963Z,56069.65
2019-03-29T15:20:53.807Z,56067.60
2019-03-29T15:23:23.058Z,56080.96
2019-03-29T15:25:54.867Z,56095.36
2019-03-29T15:28:28.901Z,56066.57
2019-03-29T15:31:00.073Z,56086.11
2019-03-29T15:33:30.819Z,56050.12
2019-03-29T15:36:01.502Z,56055.26
2019-03-29T15:38:37.269Z,56086.11
2019-03-29T15:41:08.514Z,56075.82
2019-03-29T15:43:39.767Z,56053.20
2019-03-29T15:46:10.587Z,56077.88
2019-03-29T15:48:41.239Z,56089.19
2019-03-29T15:51:11.933Z,56061.43
2019-03-29T15:53:42.587Z,56079.94
2019-03-29T15:56:13.301Z,56078.91
2019-03-29T15:58:43.945Z,56084.05
2019-03-29T16:01:14.922Z,56061.43
2019-03-29T16:03:45.617Z,56067.60
2019-03-29T16:06:16.370Z,56091.25
2019-03-29T16:08:47.144Z,56057.32
2019-03-29T16:11:17.800Z,56086.11
2019-03-29T16:13:48.463Z,56092.28
2019-03-29T16:16:19.129Z,56098.45
2019-03-29T16:18:50.906Z,56075.82
2019-03-29T16:21:21.636Z,56095.36
2019-03-29T16:23:52.261Z,56108.73
2019-03-29T16:26:22.966Z,56104.62
2019-03-29T16:28:53.720Z,56120.04
2019-03-29T16:31:24.404Z,56070.68
2019-03-29T16:33:55.365Z,56101.53
2019-03-29T16:36:26.409Z,56124.15
2019-03-29T16:38:57.124Z,56088.16
2019-03-29T16:41:27.782Z,56131.35
2019-03-29T16:43:58.540Z,56109.76
2019-03-29T16:46:29.231Z,56102.56
2019-03-29T16:48:59.880Z,56060.40
2019-03-29T16:51:30.563Z,56136.49
2019-03-29T16:54:01.254Z,56102.56
2019-03-29T16:56:31.936Z,56129.29
2019-03-29T16:59:02.569Z,56124.15
2019-03-29T17:01:33.234Z,56122.09
2019-03-29T17:04:03.980Z,56126.21
2019-03-29T17:06:34.754Z,56129.29
2019-03-29T17:09:07.283Z,56123.12
2019-03-29T17:11:37.960Z,56143.69
2019-03-29T17:14:08.807Z,56133.41
2019-03-29T17:16:39.495Z,56157.05
2019-03-29T17:19:10.189Z,56105.64
2019-03-29T17:21:40.841Z,56140.61
2019-03-29T17:24:11.860Z,56120.04
2019-03-29T17:26:45.187Z,56141.63
2019-03-29T17:29:15.868Z,56123.12
2019-03-29T17:31:49.954Z,56162.20
2019-03-29T17:34:20.834Z,56125.18
2019-03-29T17:36:51.769Z,56136.49
2019-03-29T17:39:22.474Z,56138.55
2019-03-29T17:41:53.147Z,56136.49
2019-03-29T17:44:23.999Z,56140.61
2019-03-29T17:46:54.679Z,56156.03
2019-03-29T17:49:25.377Z,56149.86
2019-03-29T17:51:56.375Z,56148.83
2019-03-29T17:54:27.154Z,56181.73
2019-03-29T17:56:58.313Z,56166.31
2019-03-29T17:59:29.065Z,56200.24
2019-03-29T18:02:09.268Z,56178.65
2019-03-29T18:04:32.547Z,56195.10
2019-03-29T18:07:03.450Z,56180.71
2019-03-29T18:09:34.100Z,56156.03
2019-03-29T18:12:05.021Z,56172.48
2019-03-29T18:14:35.989Z,56160.14
2019-03-29T18:17:06.993Z,56146.77
2019-03-29T18:19:37.817Z,56162.20
2019-03-29T18:22:08.515Z,56142.66
2019-03-29T18:24:39.190Z,56163.23
2019-03-29T18:27:09.876Z,56181.73
2019-03-29T18:29:41.377Z,56184.82
2019-03-29T18:32:12.290Z,56182.76
2019-03-29T18:34:43.741Z,56207.44
2019-03-29T18:37:15.894Z,56145.75
2019-03-29T18:39:47.220Z,56141.63
2019-03-29T18:42:17.991Z,56151.91
2019-03-29T18:44:49.010Z,56151.91
2019-03-29T18:47:19.780Z,56152.94
2019-03-29T18:49:50.538Z,56161.17
2019-03-29T18:52:21.329Z,56175.56
2019-03-29T18:54:52.130Z,56153.97
2019-03-29T18:57:22.880Z,56183.79
2019-03-29T18:59:53.643Z,56199.21
2019-03-29T19:02:24.294Z,56182.76
2019-03-29T19:04:54.998Z,56180.71
2019-03-29T19:07:30.658Z,56171.45
2019-03-29T19:10:01.829Z,56165.28
2019-03-29T19:12:32.722Z,56178.65
2019-03-29T19:15:03.411Z,56174.54
2019-03-29T19:17:34.166Z,56171.45
2019-03-29T19:20:10.374Z,56166.31
2019-03-29T19:22:37.793Z,56168.37
2019-03-29T19:25:08.930Z,56209.50
2019-03-29T19:27:39.711Z,56177.62
2019-03-29T19:30:11.514Z,56205.38
2019-03-29T19:32:42.204Z,56199.21
2019-03-29T19:35:13.273Z,56168.37
2019-03-29T19:37:44.466Z,56199.21
2019-03-29T19:40:15.580Z,56188.93
2019-03-29T19:42:46.323Z,56181.73
2019-03-29T19:45:18.716Z,56195.10
2019-03-29T19:47:49.643Z,56180.71
2019-03-29T19:50:20.748Z,56208.47
2019-03-29T19:52:51.429Z,56196.13
2019-03-29T19:55:22.412Z,56197.16
2019-03-29T19:57:53.149Z,56175.56
2019-03-29T20:00:37.609Z,56196.13
2019-03-29T20:03:08.748Z,56178.65
2019-03-29T20:05:39.797Z,56192.02
2019-03-29T20:08:10.564Z,56186.87
2019-03-29T20:10:41.476Z,56176.59
2019-03-29T20:13:12.160Z,56199.21
2019-03-29T20:15:42.940Z,56175.56
2019-03-29T20:18:13.873Z,56217.72
2019-03-29T20:20:44.616Z,56188.93
2019-03-29T20:23:15.290Z,56209.50
2019-03-29T20:25:45.944Z,56180.71
2019-03-29T20:28:16.637Z,56192.02
2019-03-29T20:30:47.381Z,56160.14
2019-03-29T20:33:18.054Z,56174.54
2019-03-29T20:35:48.836Z,56174.54
2019-03-29T20:38:19.480Z,56178.65
2019-03-29T20:40:50.155Z,56168.37
2019-03-29T20:43:20.827Z,56194.07
2019-03-29T20:45:51.517Z,56176.59
2019-03-29T20:48:22.199Z,56162.20
2019-03-29T20:50:53.179Z,56167.34
2019-03-29T20:53:23.887Z,56219.78
2019-03-29T20:55:58.154Z,56178.65
2019-03-29T20:58:27.688Z,56186.87
2019-03-29T21:00:59.271Z,56203.33
2019-03-29T21:03:30.113Z,56169.39
2019-03-29T21:06:00.795Z,56201.27
2019-03-29T21:08:31.715Z,56195.10
2019-03-29T21:11:02.335Z,56186.87
2019-03-29T21:13:33.003Z,56209.50
2019-03-29T21:16:03.658Z,56206.41
2019-03-29T21:18:34.316Z,56178.65
2019-03-29T21:21:04.957Z,56179.68
2019-03-29T21:23:35.599Z,56196.13
2019-03-29T21:26:06.255Z,56222.87
2019-03-29T21:28:36.933Z,56225.95
2019-03-29T21:31:07.599Z,56186.87
2019-03-29T21:33:40.777Z,56195.10
2019-03-29T21:36:10.769Z,56183.79
2019-03-29T21:38:41.615Z,56199.21
2019-03-29T21:41:12.341Z,56209.50
2019-03-29T21:43:44.336Z,56183.79
2019-03-29T21:46:15.022Z,56216.70
2019-03-29T21:48:46.176Z,56221.84
2019-03-29T21:51:16.956Z,56205.38
2019-03-29T21:53:47.604Z,56202.30
2019-03-29T21:56:18.331Z,56244.46
2019-03-29T21:58:49.005Z,56205.38
2019-03-29T22:01:20.271Z,56203.33
2019-03-29T22:03:51.038Z,56195.10
2019-03-29T22:06:21.737Z,56188.93
2019-03-29T22:08:52.719Z,56221.84
2019-03-29T22:11:23.552Z,56212.58
2019-03-29T22:13:54.219Z,56197.16
2019-03-29T22:16:25.163Z,56176.59
2019-03-29T22:18:55.974Z,56208.47
2019-03-29T22:21:26.716Z,56184.82
2019-03-29T22:23:57.725Z,56193.05
2019-03-29T22:26:28.399Z,56211.55
2019-03-29T22:28:59.045Z,56224.92
2019-03-29T22:31:29.859Z,56199.21
2019-03-29T22:34:00.544Z,56179.68
2019-03-29T22:36:31.214Z,56192.02
2019-03-29T22:39:01.935Z,56199.21
2019-03-29T22:41:32.981Z,56203.33
2019-03-29T22:44:03.725Z,56200.24
2019-03-29T22:46:35.047Z,56216.70
2019-03-29T22:49:06.174Z,56185.85
2019-03-29T22:51:36.858Z,56203.33
2019-03-29T22:54:07.612Z,56195.10
2019-03-29T22:56:38.426Z,56216.70
2019-03-29T22:59:09.094Z,56213.61
2019-03-29T23:01:45.572Z,56204.36
2019-03-29T23:04:18.414Z,56219.78
2019-03-29T23:06:49.146Z,56208.47
2019-03-29T23:09:19.800Z,56219.78
2019-03-29T23:11:50.775Z,56199.21
2019-03-29T23:14:21.456Z,56213.61
2019-03-29T23:16:53.319Z,56182.76
2019-03-29T23:19:24.399Z,56211.55
2019-03-29T23:21:55.107Z,56216.70
2019-03-29T23:24:26.065Z,56213.61
2019-03-29T23:26:56.759Z,56237.26
2019-03-29T23:29:27.405Z,56210.52
2019-03-29T23:31:58.091Z,56204.36
2019-03-29T23:34:29.040Z,56161.17
2019-03-29T23:36:59.747Z,56211.55
2019-03-29T23:39:30.650Z,56205.38
2019-03-29T23:42:01.298Z,56201.27
2019-03-29T23:44:31.957Z,56204.36
2019-03-29T23:47:02.665Z,56198.19
2019-03-29T23:49:33.616Z,56217.72
2019-03-29T23:52:04.627Z,56225.95
2019-03-29T23:54:35.867Z,56196.13
2019-03-29T23:57:06.659Z,56201.27
2019-03-29T23:59:37.646Z,56209.50
